Time;durP1;ratioP1;P1;durP2;ratioP2;P2;SDS_P1;SDS_P2;PMS_P1;PMS_P2;Temp;Humidity;BMP_temperature;BMP_pressure;BME280_temperature;BME280_humidity;BME280_pressure;Samples;Min_cycle;Max_cycle;Signal;HPM_P1;HPM_P2
2022/01/02 00:02:22;;;;;;;9.03;8.07;;;;;;;4.78;100.00;100951.53;5024326;28;20211;-51
2022/01/02 00:04:49;;;;;;;8.77;7.50;;;;;;;4.82;100.00;100935.41;5028998;28;20257;-51
2022/01/02 00:07:19;;;;;;;24.60;17.13;;;;;;;4.87;100.00;100935.50;5017486;28;20218;-50
2022/01/02 00:09:47;;;;;;;21.13;15.37;;;;;;;4.87;100.00;100927.81;5022562;28;20257;-50
2022/01/02 00:12:22;;;;;;;17.40;12.90;;;;;;;4.84;100.00;100938.88;5024785;28;20299;-50
2022/01/02 00:14:48;;;;;;;15.07;11.20;;;;;;;4.82;100.00;100942.25;5024819;28;20275;-51
2022/01/02 00:17:22;;;;;;;10.70;9.43;;;;;;;4.77;100.00;100944.66;5018152;28;20338;-50
2022/01/02 00:19:53;;;;;;;11.60;8.60;;;;;;;4.70;100.00;100937.66;5020183;28;20184;-50
2022/01/02 00:22:28;;;;;;;9.20;8.10;;;;;;;4.61;100.00;100924.63;5025731;28;20219;-50
2022/01/02 00:24:54;;;;;;;8.37;7.53;;;;;;;4.53;100.00;100922.72;5045018;28;20751;-51
2022/01/02 00:27:20;;;;;;;8.60;7.10;;;;;;;4.49;100.00;100920.88;5037734;28;20207;-51
2022/01/02 00:29:46;;;;;;;7.30;6.60;;;;;;;4.46;100.00;100913.13;5022513;28;20550;-50
2022/01/02 00:32:12;;;;;;;6.93;6.23;;;;;;;4.43;100.00;100907.91;5025867;28;20204;-50
2022/01/02 00:34:40;;;;;;;18.73;14.57;;;;;;;4.40;100.00;100905.28;5022562;28;20221;-50
2022/01/02 00:37:06;;;;;;;14.67;11.60;;;;;;;4.38;100.00;100894.09;5018123;28;20207;-50
2022/01/02 00:39:32;;;;;;;12.27;10.07;;;;;;;4.37;100.00;100892.38;5016249;28;20215;-50
2022/01/02 00:42:10;;;;;;;11.57;10.03;;;;;;;4.36;100.00;100891.53;5018690;28;20275;-50
2022/01/02 00:44:38;;;;;;;9.80;8.27;;;;;;;4.35;100.00;100888.91;5026255;28;20188;-51
2022/01/02 00:47:48;;;;;;;9.57;8.00;;;;;;;4.32;100.00;100879.44;5019705;28;20207;-51
2022/01/02 00:50:15;;;;;;;10.80;9.27;;;;;;;4.28;100.00;100869.94;5020988;28;20191;-50
2022/01/02 00:52:49;;;;;;;9.47;8.20;;;;;;;4.26;100.00;100866.47;5021846;28;20679;-50
2022/01/02 00:55:22;;;;;;;7.23;6.60;;;;;;;4.25;100.00;100863.03;5025990;28;20661;-51
2022/01/02 00:57:59;;;;;;;7.80;7.00;;;;;;;4.24;100.00;100868.09;5023891;28;20215;-50
2022/01/02 01:00:25;;;;;;;8.10;7.30;;;;;;;4.21;100.00;100868.91;5020271;28;20207;-50
2022/01/02 01:02:53;;;;;;;7.40;6.70;;;;;;;4.20;100.00;100864.59;5018426;28;20195;-50
2022/01/02 01:05:24;;;;;;;6.70;6.10;;;;;;;4.18;100.00;100860.28;5025705;28;20216;-50
2022/01/02 01:07:53;;;;;;;7.37;6.67;;;;;;;4.15;100.00;100857.63;5025212;28;20211;-51
2022/01/02 01:10:21;;;;;;;7.03;6.23;;;;;;;4.11;100.00;100854.13;5019391;28;20191;-50
2022/01/02 01:12:52;;;;;;;7.63;6.93;;;;;;;4.09;100.00;100859.19;5023031;28;20780;-50
2022/01/02 01:15:18;;;;;;;7.20;6.50;;;;;;;4.03;100.00;100866.72;5013520;28;20179;-50
2022/01/02 01:17:45;;;;;;;6.20;5.60;;;;;;;3.97;100.00;100866.56;5019656;28;20217;-51
2022/01/02 01:20:13;;;;;;;6.70;6.03;;;;;;;3.93;100.00;100857.91;5023688;28;20235;-50
2022/01/02 01:22:39;;;;;;;10.07;7.87;;;;;;;3.91;100.00;100856.16;5019182;28;20180;-50
2022/01/02 01:25:08;;;;;;;9.00;7.80;;;;;;;3.86;100.00;100858.56;5019483;28;20546;-50
2022/01/02 01:27:33;;;;;;;10.93;8.17;;;;;;;3.80;100.00;100854.16;5023795;28;20747;-51
2022/01/02 01:29:59;;;;;;;7.43;6.63;;;;;;;3.76;100.00;100852.34;5019058;28;20266;-50
2022/01/02 01:32:24;;;;;;;8.00;6.77;;;;;;;3.70;100.00;100844.47;5026432;28;20216;-50
2022/01/02 01:34:49;;;;;;;7.40;6.70;;;;;;;3.67;100.00;100846.94;5024989;28;20199;-50
2022/01/02 01:37:15;;;;;;;6.40;5.80;;;;;;;3.61;100.00;100855.31;5023822;28;20226;-50
2022/01/02 01:39:40;;;;;;;6.13;5.17;;;;;;;3.57;100.00;100868.00;5025946;28;20564;-50
2022/01/02 01:42:09;;;;;;;5.60;5.10;;;;;;;3.52;100.00;100860.19;5013714;28;20183;-50
2022/01/02 01:47:11;;;;;;;4.57;4.17;;;;;;;3.43;100.00;100862.47;5020980;28;20731;-50
2022/01/02 01:49:37;;;;;;;4.80;4.40;;;;;;;3.38;100.00;100859.78;5020060;28;20275;-52
2022/01/02 01:52:02;;;;;;;4.63;4.23;;;;;;;3.40;100.00;100865.81;5021430;28;20613;-49
2022/01/02 01:54:28;;;;;;;5.27;4.77;;;;;;;3.42;100.00;100865.84;5022275;28;20195;-51
2022/01/02 01:56:53;;;;;;;5.40;4.63;;;;;;;3.43;100.00;100860.78;5017552;28;21309;-52
2022/01/02 01:59:20;;;;;;;5.13;4.63;;;;;;;3.47;100.00;100865.19;5023723;28;20184;-52
2022/01/02 02:01:47;;;;;;;5.20;4.70;;;;;;;3.47;100.00;100864.28;5014220;28;20219;-50
2022/01/02 02:04:12;;;;;;;5.43;4.93;;;;;;;3.46;100.00;100860.00;5021027;28;20183;-50
2022/01/02 02:06:38;;;;;;;6.07;5.47;;;;;;;3.46;100.00;100867.69;5022174;28;20218;-50
2022/01/02 02:09:05;;;;;;;6.47;5.80;;;;;;;3.43;100.00;100859.91;5022364;28;20204;-50
2022/01/02 02:11:31;;;;;;;5.50;5.00;;;;;;;3.41;100.00;100859.88;5021174;28;20223;-50
2022/01/02 02:13:57;;;;;;;5.80;5.30;;;;;;;3.41;100.00;100856.44;5024139;28;20191;-50
2022/01/02 02:16:23;;;;;;;7.30;5.00;;;;;;;3.39;100.00;100850.44;5013750;28;20548;-51
2022/01/02 02:18:49;;;;;;;5.27;4.80;;;;;;;3.37;100.00;100850.34;5022042;28;20201;-52
2022/01/02 02:21:14;;;;;;;5.20;4.23;;;;;;;3.37;100.00;100855.47;5023910;28;20622;-50
2022/01/02 02:23:42;;;;;;;4.60;4.20;;;;;;;3.33;100.00;100854.53;5021640;28;20208;-50
2022/01/02 02:26:08;;;;;;;5.10;4.60;;;;;;;3.31;100.00;100850.19;5015236;28;20218;-50
2022/01/02 02:28:34;;;;;;;6.87;5.77;;;;;;;3.25;100.00;100848.31;5017161;28;20717;-50
2022/01/02 02:30:59;;;;;;;6.43;5.50;;;;;;;3.24;100.00;100856.81;5015080;28;20194;-50
2022/01/02 02:33:25;;;;;;;6.17;5.37;;;;;;;3.24;100.00;100848.25;5027525;28;20675;-50
2022/01/02 02:35:51;;;;;;;7.20;6.17;;;;;;;3.25;100.00;100855.13;5027158;28;20230;-50
2022/01/02 02:38:18;;;;;;;7.37;5.83;;;;;;;3.26;100.00;100849.19;5024385;28;20218;-51
2022/01/02 02:40:44;;;;;;;6.17;5.57;;;;;;;3.32;100.00;100839.16;5023612;28;20191;-50
2022/01/02 02:43:33;;;;;;;6.03;5.43;;;;;;;3.38;100.00;100829.06;5027365;28;20290;-51
2022/01/02 02:49:03;;;;;;;5.07;4.57;;;;;;;3.41;100.00;100812.94;5025543;28;20219;-51
2022/01/02 02:54:04;;;;;;;4.60;4.20;;;;;;;3.34;100.00;100791.41;5027347;28;20249;-50
2022/01/02 02:56:41;;;;;;;4.87;4.37;;;;;;;3.31;100.00;100802.44;5027462;28;20200;-50
2022/01/02 02:59:08;;;;;;;5.30;4.80;;;;;;;3.27;100.00;100798.06;5022435;28;20229;-50
2022/01/02 03:01:33;;;;;;;5.30;4.80;;;;;;;3.23;100.00;100788.56;5017291;28;20195;-50
2022/01/02 03:03:59;;;;;;;5.27;4.77;;;;;;;3.20;100.00;100778.25;5017901;28;20222;-51
2022/01/02 03:06:25;;;;;;;5.37;4.57;;;;;;;3.15;100.00;100774.69;5020909;28;20657;-50
2022/01/02 03:08:51;;;;;;;5.60;5.00;;;;;;;3.09;100.00;100766.84;5026078;28;20211;-50
2022/01/02 03:11:20;;;;;;;6.27;5.67;;;;;;;3.05;100.00;100771.88;5016557;28;20199;-50
2022/01/02 03:13:48;;;;;;;6.37;5.77;;;;;;;3.02;100.00;100774.31;5019342;28;20222;-50
2022/01/02 03:16:14;;;;;;;5.90;5.30;;;;;;;3.01;100.00;100772.59;5026217;28;20219;-50
2022/01/02 03:18:40;;;;;;;7.73;5.63;;;;;;;3.01;100.00;100780.25;5022001;28;20243;-50
2022/01/02 03:21:06;;;;;;;6.27;5.67;;;;;;;2.98;100.00;100774.19;5023752;28;20195;-50
2022/01/02 03:23:31;;;;;;;6.67;6.07;;;;;;;2.99;100.00;100770.81;5017153;28;20330;-50
2022/01/02 03:25:57;;;;;;;6.50;5.90;;;;;;;2.97;100.00;100764.78;5026257;28;20191;-50
2022/01/02 03:28:23;;;;;;;6.70;6.10;;;;;;;2.99;100.00;100758.88;5027385;28;20283;-50
2022/01/02 03:30:48;;;;;;;7.03;6.33;;;;;;;3.05;100.00;100755.63;5021004;28;20196;-50
2022/01/02 03:33:14;;;;;;;7.23;6.40;;;;;;;3.10;100.00;100748.97;5022587;28;20222;-50
2022/01/02 03:35:39;;;;;;;7.07;6.37;;;;;;;3.16;100.00;100746.59;5021236;28;20212;-50
2022/01/02 03:38:06;;;;;;;7.13;6.43;;;;;;;3.20;100.00;100730.50;5019643;28;20678;-50
2022/01/02 03:40:31;;;;;;;6.93;6.30;;;;;;;3.29;100.00;100734.16;5023332;28;20194;-50
2022/01/02 03:42:57;;;;;;;6.50;5.90;;;;;;;3.34;100.00;100733.47;5032000;28;20183;-51
2022/01/02 03:45:22;;;;;;;7.23;6.30;;;;;;;3.39;100.00;100736.13;5030554;28;20209;-50
2022/01/02 03:47:48;;;;;;;6.90;6.30;;;;;;;3.46;100.00;100729.50;5025583;28;20215;-50
2022/01/02 03:50:14;;;;;;;6.53;5.93;;;;;;;3.54;100.00;100738.25;5023218;28;20552;-51
2022/01/02 03:52:40;;;;;;;6.93;6.10;;;;;;;3.60;100.00;100728.19;5017973;28;20265;-51
2022/01/02 03:55:07;;;;;;;7.20;6.50;;;;;;;3.65;100.00;100729.19;5022150;28;20191;-50
2022/01/02 03:57:32;;;;;;;6.33;5.73;;;;;;;3.69;100.00;100719.03;5020884;28;20624;-50
2022/01/02 03:59:58;;;;;;;5.60;5.03;;;;;;;3.69;100.00;100724.13;5021288;28;20223;-50
2022/01/02 04:02:23;;;;;;;6.13;5.53;;;;;;;3.70;100.00;100726.72;5025179;28;20596;-50
2022/01/02 04:04:49;;;;;;;6.20;5.60;;;;;;;3.73;100.00;100714.03;5023015;28;20282;-50
2022/01/02 04:07:14;;;;;;;6.73;6.07;;;;;;;3.77;100.00;100697.03;5025911;28;20230;-50
2022/01/02 04:09:39;;;;;;;6.70;6.00;;;;;;;3.79;100.00;100690.25;5024182;28;20223;-50
2022/01/02 04:12:05;;;;;;;6.07;5.50;;;;;;;3.80;100.00;100695.41;5022931;28;20230;-50
2022/01/02 04:14:30;;;;;;;5.50;5.00;;;;;;;3.79;100.00;100690.25;5015826;28;20191;-50
2022/01/02 04:16:55;;;;;;;5.50;5.00;;;;;;;3.78;100.00;100688.53;5015900;28;20266;-49
2022/01/02 04:19:21;;;;;;;6.27;4.90;;;;;;;3.79;100.00;100687.69;5020525;28;20534;-50
2022/01/02 04:21:46;;;;;;;5.60;5.10;;;;;;;3.81;100.00;100697.16;5023313;28;20187;-51
2022/01/02 04:24:12;;;;;;;5.23;4.47;;;;;;;3.81;100.00;100696.28;5026778;28;20195;-50
2022/01/02 04:26:37;;;;;;;5.30;4.80;;;;;;;3.79;100.00;100701.34;5016426;28;20306;-51
2022/01/02 04:29:03;;;;;;;5.20;4.70;;;;;;;3.81;100.00;100707.38;5025006;28;20199;-50
2022/01/02 04:31:28;;;;;;;5.27;4.77;;;;;;;3.84;100.00;100704.06;5018040;28;20219;-51
2022/01/02 04:33:54;;;;;;;4.77;4.37;;;;;;;3.85;100.00;100700.66;5014618;28;20203;-50
2022/01/02 04:36:19;;;;;;;5.37;4.87;;;;;;;3.86;100.00;100692.13;5018091;28;20735;-51
2022/01/02 04:38:45;;;;;;;4.93;4.50;;;;;;;3.90;100.00;100698.22;5022705;28;20215;-50
2022/01/02 04:41:11;;;;;;;6.40;4.60;;;;;;;3.92;100.00;100694.00;5024289;28;20191;-51
2022/01/02 04:43:37;;;;;;;5.57;5.10;;;;;;;3.93;100.00;100695.75;5020892;28;20196;-50
2022/01/02 04:46:02;;;;;;;5.10;4.70;;;;;;;3.93;100.00;100691.47;5022551;28;20333;-50
2022/01/02 04:48:28;;;;;;;5.77;5.27;;;;;;;3.93;100.00;100694.03;5018510;28;20632;-51
2022/01/02 04:50:54;;;;;;;5.67;5.10;;;;;;;3.93;100.00;100672.69;5020989;28;20199;-50
2022/01/02 04:53:22;;;;;;;5.63;5.13;;;;;;;3.93;100.00;100665.88;5019851;28;20220;-51
2022/01/02 04:55:49;;;;;;;7.47;5.30;;;;;;;3.95;100.00;100665.88;5023896;28;20190;-50
2022/01/02 04:58:15;;;;;;;5.57;5.07;;;;;;;3.94;100.00;100659.03;5024441;28;20753;-50
2022/01/02 05:00:40;;;;;;;5.50;4.90;;;;;;;3.94;100.00;100656.47;5016439;28;20279;-51
2022/01/02 05:03:05;;;;;;;6.83;5.03;;;;;;;3.95;100.00;100656.53;5019437;28;20191;-50
2022/01/02 05:05:31;;;;;;;5.40;4.90;;;;;;;3.96;100.00;100658.25;5016828;28;20230;-51
2022/01/02 05:07:56;;;;;;;6.43;5.83;;;;;;;3.97;100.00;100656.56;5018933;28;20211;-50
2022/01/02 05:10:22;;;;;;;6.07;5.20;;;;;;;3.96;100.00;100647.13;5021999;28;20508;-50
2022/01/02 05:12:47;;;;;;;5.83;5.27;;;;;;;3.94;100.00;100649.69;5021827;28;20260;-50
2022/01/02 05:15:12;;;;;;;6.07;5.43;;;;;;;3.94;100.00;100656.47;5016213;28;20187;-51
2022/01/02 05:17:38;;;;;;;5.60;5.10;;;;;;;3.90;100.00;100652.13;5009807;28;20734;-51
2022/01/02 05:20:05;;;;;;;5.23;4.73;;;;;;;3.87;100.00;100662.28;5005905;28;20188;-51
2022/01/02 05:22:30;;;;;;;6.03;4.67;;;;;;;3.83;100.00;100651.13;5008712;28;20254;-51
2022/01/02 05:24:55;;;;;;;5.40;4.90;;;;;;;3.79;100.00;100647.59;5012396;28;20625;-50
2022/01/02 05:27:21;;;;;;;6.57;4.90;;;;;;;3.78;100.00;100642.44;5029621;28;20251;-51
2022/01/02 05:29:46;;;;;;;6.27;4.80;;;;;;;3.78;100.00;100653.53;5027161;28;20226;-51
2022/01/02 05:32:12;;;;;;;5.50;5.00;;;;;;;3.79;100.00;100667.22;5030710;28;20208;-51
2022/01/02 05:34:37;;;;;;;5.00;4.60;;;;;;;3.79;100.00;100667.22;5012585;28;20223;-51
2022/01/02 05:37:03;;;;;;;5.20;4.80;;;;;;;3.80;100.00;100659.56;5004345;28;20210;-51
2022/01/02 05:39:28;;;;;;;5.53;5.03;;;;;;;3.81;100.00;100656.19;5007049;28;21904;-51
2022/01/02 05:41:54;;;;;;;6.10;5.50;;;;;;;3.83;100.00;100663.03;5011725;28;20241;-51
2022/01/02 05:44:20;;;;;;;5.40;4.90;;;;;;;3.83;100.00;100674.16;5015571;28;20188;-51
2022/01/02 05:46:46;;;;;;;5.87;4.80;;;;;;;3.85;100.00;100669.06;5019588;28;20198;-51
2022/01/02 05:49:13;;;;;;;5.70;5.20;;;;;;;3.86;100.00;100651.16;5024544;28;20630;-51
2022/01/02 05:51:39;;;;;;;7.23;4.80;;;;;;;3.87;100.00;100644.38;5021196;28;20680;-51
2022/01/02 05:54:05;;;;;;;5.40;4.87;;;;;;;3.88;100.00;100657.19;5013484;28;20211;-51
2022/01/02 05:56:33;;;;;;;5.10;4.60;;;;;;;3.90;100.00;100639.31;5019344;28;20661;-51
2022/01/02 05:58:58;;;;;;;5.83;5.23;;;;;;;3.91;100.00;100644.47;5026482;28;20188;-51
2022/01/02 06:01:24;;;;;;;5.57;4.97;;;;;;;3.94;100.00;100648.78;5017084;28;20695;-51
2022/01/02 06:03:50;;;;;;;5.43;4.93;;;;;;;3.96;100.00;100652.25;5016088;28;20219;-51
2022/01/02 06:06:15;;;;;;;5.30;4.80;;;;;;;3.97;100.00;100649.75;5019024;28;20236;-51
2022/01/02 06:08:41;;;;;;;5.20;4.70;;;;;;;3.97;100.00;100643.75;5018717;28;20266;-51
2022/01/02 06:11:06;;;;;;;5.03;4.63;;;;;;;3.98;100.00;100655.72;5023768;28;20194;-51
2022/01/02 06:13:32;;;;;;;5.40;4.90;;;;;;;3.99;100.00;100636.13;5024011;28;20224;-51
2022/01/02 06:15:57;;;;;;;5.07;4.57;;;;;;;3.98;100.00;100630.13;5026645;28;20203;-51
2022/01/02 06:18:23;;;;;;;5.00;4.50;;;;;;;3.96;100.00;100636.91;5030021;28;20224;-50
2022/01/02 06:20:48;;;;;;;5.50;4.80;;;;;;;3.96;100.00;100636.91;5021863;28;20202;-51
2022/01/02 06:23:15;;;;;;;5.03;4.53;;;;;;;3.96;100.00;100622.41;5016882;28;21021;-51
2022/01/02 06:25:45;;;;;;;5.87;4.97;;;;;;;3.99;100.00;100631.84;5022985;28;20254;-51
2022/01/02 06:28:10;;;;;;;4.87;4.33;;;;;;;3.99;100.00;100628.44;5030269;28;20199;-51
2022/01/02 06:30:36;;;;;;;5.50;5.00;;;;;;;3.98;100.00;100625.00;5028562;28;20589;-51
2022/01/02 06:33:01;;;;;;;5.20;4.70;;;;;;;3.96;100.00;100619.84;5013371;28;20657;-51
2022/01/02 06:35:30;;;;;;;4.73;4.20;;;;;;;3.96;100.00;100624.97;5011595;28;20188;-51
2022/01/02 06:37:56;;;;;;;5.00;4.60;;;;;;;3.95;100.00;100625.81;5019343;28;20511;-51
2022/01/02 06:40:22;;;;;;;5.10;4.70;;;;;;;3.96;100.00;100614.72;5018667;28;20556;-50
2022/01/02 06:42:48;;;;;;;6.00;4.93;;;;;;;3.94;100.00;100606.13;5019741;28;20656;-50
2022/01/02 06:45:13;;;;;;;4.70;4.30;;;;;;;3.89;100.00;100602.59;5024587;28;20195;-51
2022/01/02 06:47:39;;;;;;;5.00;4.60;;;;;;;3.85;100.00;100597.38;5021576;28;20279;-50
2022/01/02 06:50:06;;;;;;;5.27;4.77;;;;;;;3.81;100.00;100594.72;5016773;28;20191;-50
2022/01/02 06:52:31;;;;;;;5.20;4.80;;;;;;;3.83;100.00;100604.16;5025818;28;20679;-51
2022/01/02 06:54:56;;;;;;;5.33;4.70;;;;;;;3.85;100.00;100602.50;5019558;28;20245;-51
2022/01/02 06:57:22;;;;;;;4.67;4.20;;;;;;;3.87;100.00;100601.69;5014985;28;20216;-50
2022/01/02 06:59:49;;;;;;;5.03;4.53;;;;;;;3.89;100.00;100614.53;5015862;28;20206;-50
2022/01/02 07:02:16;;;;;;;4.97;4.53;;;;;;;3.91;100.00;100618.00;5047103;28;20174;-51
2022/01/02 07:04:41;;;;;;;5.00;4.50;;;;;;;3.88;100.00;100615.38;5013082;28;20653;-50
2022/01/02 07:07:07;;;;;;;5.17;4.70;;;;;;;3.86;100.00;100614.47;5015376;28;20497;-50
2022/01/02 07:09:32;;;;;;;4.60;4.20;;;;;;;3.83;100.00;100611.84;5024904;28;20226;-51
2022/01/02 07:11:59;;;;;;;4.40;4.00;;;;;;;3.81;100.00;100617.78;5021837;28;20231;-50
2022/01/02 07:14:27;;;;;;;4.70;4.30;;;;;;;3.81;100.00;100617.78;5021773;28;20621;-50
2022/01/02 07:16:56;;;;;;;4.60;4.20;;;;;;;3.84;100.00;100614.44;5026574;28;20565;-50
2022/01/02 07:19:22;;;;;;;5.00;4.50;;;;;;;3.86;100.00;100615.31;5028416;28;20195;-51
2022/01/02 07:21:48;;;;;;;5.13;4.37;;;;;;;3.87;100.00;100622.19;5014659;28;20190;-50
2022/01/02 07:24:14;;;;;;;5.10;4.63;;;;;;;3.89;100.00;100628.19;5027128;28;20184;-51
2022/01/02 07:26:39;;;;;;;5.30;4.80;;;;;;;3.92;100.00;100630.00;5021730;28;20735;-51
2022/01/02 07:29:04;;;;;;;4.50;4.10;;;;;;;3.96;100.00;100631.78;5020754;28;20263;-50
2022/01/02 07:31:30;;;;;;;4.23;3.83;;;;;;;4.00;100.00;100627.59;5030332;28;20195;-51
2022/01/02 07:33:55;;;;;;;4.67;4.27;;;;;;;4.02;100.00;100631.03;5022553;28;20263;-50
2022/01/02 07:36:21;;;;;;;5.37;4.77;;;;;;;4.05;100.00;100615.75;5024956;28;20547;-51
2022/01/02 07:38:46;;;;;;;5.03;4.40;;;;;;;4.06;100.00;100625.19;5025461;28;20635;-50
2022/01/02 07:41:12;;;;;;;4.53;4.13;;;;;;;4.06;100.00;100627.72;5024484;28;20181;-50
2022/01/02 07:43:37;;;;;;;4.70;4.30;;;;;;;4.07;100.00;100626.91;5026492;28;20192;-50
2022/01/02 07:46:02;;;;;;;4.43;4.03;;;;;;;4.08;100.00;100616.69;5021703;28;20192;-51
2022/01/02 07:48:28;;;;;;;4.77;4.27;;;;;;;4.11;100.00;100615.91;5024134;28;20216;-50
2022/01/02 07:50:53;;;;;;;5.10;4.37;;;;;;;4.15;100.00;100619.41;5016863;28;20176;-51
2022/01/02 07:53:18;;;;;;;4.57;4.00;;;;;;;4.19;100.00;100616.94;5023168;28;20633;-51
2022/01/02 07:55:44;;;;;;;5.00;4.50;;;;;;;4.24;100.00;100620.47;5027052;28;20206;-51
2022/01/02 07:58:10;;;;;;;4.50;4.10;;;;;;;4.30;100.00;100609.50;5020368;28;20284;-51
2022/01/02 08:00:35;;;;;;;4.63;4.23;;;;;;;4.36;100.00;100609.63;5018880;28;20203;-51
2022/01/02 08:03:01;;;;;;;4.70;4.30;;;;;;;4.42;100.00;100617.44;5024181;28;20176;-51
2022/01/02 08:05:26;;;;;;;5.23;4.73;;;;;;;4.49;100.00;100633.81;5027356;28;20214;-50
2022/01/02 08:07:51;;;;;;;5.40;4.90;;;;;;;4.55;100.00;100622.81;5023433;28;20644;-50
2022/01/02 08:10:17;;;;;;;6.43;5.30;;;;;;;4.65;100.00;100629.00;5014313;28;20217;-50
2022/01/02 08:12:42;;;;;;;6.80;6.10;;;;;;;4.73;100.00;100627.50;5022510;28;20209;-51
2022/01/02 08:15:09;;;;;;;8.90;8.00;;;;;;;4.83;100.00;100614.00;5021875;28;20269;-51
2022/01/02 08:17:35;;;;;;;10.63;9.13;;;;;;;4.92;100.00;100626.16;5018098;28;20713;-51
2022/01/02 08:20:00;;;;;;;10.47;9.37;;;;;;;5.03;100.00;100624.66;5027003;28;20191;-50
2022/01/02 08:22:26;;;;;;;10.87;9.63;;;;;;;5.15;100.00;100634.28;5021477;28;20185;-51
2022/01/02 08:24:51;;;;;;;11.37;10.20;;;;;;;5.27;100.00;100625.97;5025752;28;20191;-51
2022/01/02 08:27:17;;;;;;;9.93;8.93;;;;;;;5.40;100.00;100623.59;5018734;28;20631;-50
2022/01/02 08:29:42;;;;;;;11.17;10.07;;;;;;;5.53;100.00;100630.69;5024142;28;20612;-51
2022/01/02 08:32:08;;;;;;;10.90;9.87;;;;;;;5.63;100.00;100624.84;5021586;28;20222;-51
2022/01/02 08:34:33;;;;;;;10.87;9.83;;;;;;;5.75;100.00;100616.50;5024893;28;20204;-51
2022/01/02 08:36:58;;;;;;;10.13;9.13;;;;;;;5.89;100.00;100620.97;5026057;28;20220;-51
2022/01/02 08:39:24;;;;;;;10.17;9.17;;;;;;;6.01;100.00;100610.91;5021237;28;20193;-50
2022/01/02 08:41:49;;;;;;;10.37;9.40;;;;;;;6.13;100.00;100606.81;5022818;28;20224;-50
2022/01/02 08:44:14;;;;;;;10.43;9.37;;;;;;;6.24;100.00;100597.56;5018709;28;20196;-50
2022/01/02 08:46:40;;;;;;;8.90;8.00;;;;;;;6.33;100.00;100602.81;5016247;28;20320;-51
2022/01/02 08:49:05;;;;;;;8.53;7.70;;;;;;;6.44;100.00;100614.94;5018391;28;20673;-48
2022/01/02 08:51:31;;;;;;;8.10;7.30;;;;;;;6.55;100.00;100614.25;5024686;28;20557;-49
2022/01/02 08:53:56;;;;;;;8.57;7.63;;;;;;;6.66;100.00;100619.53;5026859;28;20179;-50
2022/01/02 08:56:21;;;;;;;10.00;9.10;;;;;;;6.75;100.00;100618.78;5020912;28;20231;-50
2022/01/02 08:58:47;;;;;;;12.00;10.80;;;;;;;6.81;100.00;100615.41;5021329;28;20211;-50
2022/01/02 09:01:12;;;;;;;11.03;10.03;;;;;;;6.84;100.00;100613.72;5015671;28;20609;-50
2022/01/02 09:03:37;;;;;;;11.67;10.57;;;;;;;6.91;100.00;100618.97;5025349;28;20258;-50
2022/01/02 09:06:03;;;;;;;10.37;9.37;;;;;;;6.99;100.00;100627.63;5017720;28;20225;-50
2022/01/02 09:08:28;;;;;;;10.13;9.20;;;;;;;7.09;100.00;100621.75;5017603;28;20309;-51
2022/01/02 09:10:54;;;;;;;10.47;9.47;;;;;;;7.17;100.00;100619.25;5014777;28;20242;-50
2022/01/02 09:13:23;;;;;;;9.30;8.40;;;;;;;7.23;100.00;100621.03;5023601;28;20207;-51
2022/01/02 09:15:48;;;;;;;9.07;8.17;;;;;;;7.28;100.00;100616.75;5018238;28;20217;-51
2022/01/02 09:18:14;;;;;;;8.03;7.23;;;;;;;7.32;100.00;100621.09;5024615;28;20668;-50
2022/01/02 09:20:39;;;;;;;7.27;6.57;;;;;;;7.38;100.00;100620.28;5023866;28;20214;-51
2022/01/02 09:23:04;;;;;;;7.83;7.10;;;;;;;7.46;100.00;100628.97;5021121;28;20200;-51
2022/01/02 09:25:29;;;;;;;7.57;6.87;;;;;;;7.56;100.00;100643.66;5018485;28;20275;-51
2022/01/02 09:27:55;;;;;;;7.93;7.13;;;;;;;7.62;100.00;100642.84;5026090;28;20218;-51
2022/01/02 09:30:20;;;;;;;8.13;7.33;;;;;;;7.65;100.00;100637.72;5028680;28;20199;-51
2022/01/02 09:32:46;;;;;;;7.57;6.87;;;;;;;7.68;100.00;100642.91;5021605;28;20221;-50
2022/01/02 09:35:12;;;;;;;8.33;7.43;;;;;;;7.71;100.00;100639.47;5029641;28;20664;-50
2022/01/02 09:37:37;;;;;;;7.80;7.00;;;;;;;7.70;100.00;100632.59;5026888;28;20272;-51
2022/01/02 09:40:05;;;;;;;8.07;7.27;;;;;;;7.65;100.00;100622.25;5029087;28;20198;-50
2022/01/02 09:42:32;;;;;;;8.10;7.37;;;;;;;7.57;100.00;100621.31;5029786;28;20860;-51
2022/01/02 09:44:57;;;;;;;7.83;7.13;;;;;;;7.48;100.00;100625.56;5027920;28;20183;-50
2022/01/02 09:47:23;;;;;;;8.00;7.20;;;;;;;7.45;100.00;100624.66;5028157;28;20225;-51
2022/01/02 09:49:49;;;;;;;8.20;7.40;;;;;;;7.43;100.00;100595.47;5025527;28;20565;-50
2022/01/02 09:52:15;;;;;;;8.50;7.60;;;;;;;7.43;100.00;100586.00;5029545;28;20578;-50
2022/01/02 09:54:41;;;;;;;7.33;6.63;;;;;;;7.45;100.00;100602.34;5028918;28;20179;-50
2022/01/02 09:57:06;;;;;;;8.10;6.80;;;;;;;7.46;100.00;100585.19;5023331;28;20222;-51
2022/01/02 09:59:32;;;;;;;6.87;6.17;;;;;;;7.46;100.00;100585.19;5027688;28;20199;-50
2022/01/02 10:01:59;;;;;;;6.17;5.57;;;;;;;7.45;100.00;100598.91;5028432;28;20191;-51
2022/01/02 10:04:33;;;;;;;6.40;5.80;;;;;;;7.46;100.00;100595.50;5032700;28;20203;-51
2022/01/02 10:06:59;;;;;;;7.00;6.30;;;;;;;7.49;100.00;100590.34;5028040;28;20207;-51
2022/01/02 10:09:32;;;;;;;6.03;5.43;;;;;;;7.50;100.00;100574.03;5032101;28;20573;-51
2022/01/02 10:12:19;;;;;;;6.63;5.93;;;;;;;7.55;100.00;100556.06;5033693;28;20249;-51
2022/01/02 10:14:44;;;;;;;6.77;6.07;;;;;;;7.58;100.00;100544.09;5044481;28;20203;-50
2022/01/02 10:17:09;;;;;;;6.57;5.83;;;;;;;7.61;100.00;100540.66;5040036;28;20587;-52
2022/01/02 10:19:38;;;;;;;5.67;5.17;;;;;;;7.66;100.00;100545.84;5035392;28;20455;-49
2022/01/02 10:22:06;;;;;;;5.60;5.10;;;;;;;7.71;100.00;100547.63;5027341;28;20219;-52
2022/01/02 10:24:37;;;;;;;5.37;4.87;;;;;;;7.77;100.00;100527.03;5016708;28;20195;-50
2022/01/02 10:27:13;;;;;;;5.87;5.10;;;;;;;7.84;100.00;100538.22;5015363;28;20320;-50
2022/01/02 10:29:50;;;;;;;5.73;5.17;;;;;;;7.94;100.00;100531.44;5015699;28;20605;-49
2022/01/02 10:32:25;;;;;;;5.83;5.27;;;;;;;7.99;100.00;100534.91;5010225;28;20210;-52
2022/01/02 10:34:51;;;;;;;5.40;4.90;;;;;;;8.04;100.00;100542.66;5012792;28;20201;-50
2022/01/02 10:37:25;;;;;;;5.97;5.07;;;;;;;8.04;100.00;100538.34;5013451;28;20211;-50
2022/01/02 10:39:50;;;;;;;4.90;4.50;;;;;;;8.02;100.00;100546.94;5013758;28;20191;-50
2022/01/02 10:42:17;;;;;;;4.83;4.43;;;;;;;7.99;100.00;100545.22;5016772;28;20207;-50
2022/01/02 10:44:43;;;;;;;5.13;4.63;;;;;;;8.01;100.00;100546.09;5017772;28;20219;-50
2022/01/02 10:47:14;;;;;;;4.90;4.40;;;;;;;8.11;100.00;100543.53;5011898;28;20663;-50
2022/01/02 10:49:49;;;;;;;5.10;4.60;;;;;;;8.35;100.00;100537.66;5012407;28;20204;-51
2022/01/02 10:52:19;;;;;;;4.50;4.10;;;;;;;8.62;100.00;100529.16;5019003;28;20207;-50
2022/01/02 10:54:44;;;;;;;5.17;4.77;;;;;;;8.90;100.00;100521.50;5019206;28;20203;-50
2022/01/02 10:57:11;;;;;;;5.20;4.27;;;;;;;9.12;100.00;100506.91;5013100;28;20207;-51
2022/01/02 10:59:38;;;;;;;4.70;4.23;;;;;;;9.29;100.00;100487.97;5016701;28;20184;-50
2022/01/02 11:02:05;;;;;;;5.17;4.67;;;;;;;9.37;100.00;100481.06;5023420;28;20188;-51
2022/01/02 11:04:32;;;;;;;4.80;4.30;;;;;;;9.45;100.00;100475.88;5018438;28;20246;-51
2022/01/02 11:07:04;;;;;;;4.50;4.10;;;;;;;9.51;100.00;100486.22;5015998;28;20815;-51
2022/01/02 11:09:31;;;;;;;4.10;3.80;;;;;;;9.57;100.00;100496.53;5019961;28;20548;-50
2022/01/02 11:11:56;;;;;;;5.23;4.40;;;;;;;9.60;100.00;100483.63;5016182;28;20215;-50
2022/01/02 11:14:22;;;;;;;4.63;4.23;;;;;;;9.59;100.00;100494.81;5020360;28;20192;-50
2022/01/02 11:16:48;;;;;;;5.03;3.57;;;;;;;9.58;100.00;100494.81;5014233;28;20257;-50
2022/01/02 11:19:13;;;;;;;4.37;3.97;;;;;;;9.60;100.00;100513.78;5018695;28;20196;-51
2022/01/02 11:21:43;;;;;;;3.90;3.60;;;;;;;9.61;100.00;100502.56;5011075;28;20188;-51
2022/01/02 11:24:18;;;;;;;3.97;3.60;;;;;;;9.60;100.00;100501.72;5021353;28;20353;-51
2022/01/02 11:26:55;;;;;;;4.30;3.90;;;;;;;9.64;100.00;100512.88;5016435;28;20188;-50
2022/01/02 11:29:26;;;;;;;3.80;3.50;;;;;;;9.67;100.00;100505.13;5013534;28;20283;-50
2022/01/02 11:31:52;;;;;;;4.40;3.87;;;;;;;9.71;100.00;100513.72;5016136;28;20201;-51